createdAt,value
2023-03-23T16:03:01.998Z,97909.75
2023-03-23T16:08:23.899Z,97914.59
2023-03-23T16:13:45.925Z,97912.69
2023-03-23T16:19:11.094Z,97914.19
2023-03-23T16:24:32.786Z,97930.47
2023-03-23T16:30:04.020Z,97932.97
2023-03-23T16:35:26.257Z,97927.69
2023-03-23T16:40:47.934Z,97942.44
2023-03-23T16:46:12.049Z,97943.88
2023-03-23T16:51:33.827Z,97946.63
2023-03-23T16:56:55.618Z,97949.56
2023-03-23T17:02:17.507Z,97949.81
2023-03-23T17:07:40.826Z,97940.69
2023-03-23T17:13:02.534Z,97924.16
2023-03-23T17:18:25.286Z,97920.28
2023-03-23T17:23:46.998Z,97911.41
2023-03-23T17:29:09.000Z,97917.22
2023-03-23T17:34:31.176Z,97922.91
2023-03-23T17:39:52.974Z,97916.81
2023-03-23T17:45:14.671Z,97921.84
2023-03-23T17:50:36.487Z,97917.50
2023-03-23T17:55:59.246Z,97914.19
2023-03-23T18:01:21.099Z,97921.97
2023-03-23T18:06:43.452Z,97927.53
2023-03-23T18:12:05.609Z,97926.41
2023-03-23T18:17:27.432Z,97920.59
2023-03-23T18:22:49.364Z,97924.47
2023-03-23T18:28:11.207Z,97924.34
2023-03-23T18:33:34.345Z,97921.84
2023-03-23T18:38:57.353Z,97916.88
2023-03-23T18:44:19.056Z,97917.81
2023-03-23T18:49:41.010Z,97917.81
2023-03-23T18:55:02.980Z,97915.19
2023-03-23T19:00:24.781Z,97921.44
2023-03-23T19:05:46.923Z,97937.50
2023-03-23T19:11:09.135Z,97936.16
2023-03-23T19:16:35.365Z,97942.13
2023-03-23T19:21:57.133Z,97940.97
2023-03-23T19:27:20.991Z,97931.56
2023-03-23T19:32:43.023Z,97936.84
2023-03-23T19:38:04.962Z,97938.09
2023-03-23T19:43:27.673Z,97945.03
2023-03-23T19:48:50.289Z,97940.41
2023-03-23T19:54:13.019Z,97936.78
2023-03-23T19:59:35.362Z,97936.53
2023-03-23T20:04:57.351Z,97940.94
2023-03-23T20:10:23.065Z,97933.88
2023-03-23T20:15:51.304Z,97930.41
2023-03-23T20:21:18.901Z,97928.03
2023-03-23T20:26:43.638Z,97924.28
2023-03-23T20:32:07.382Z,97921.78
2023-03-23T20:37:31.180Z,97918.31
2023-03-23T20:42:54.487Z,97908.06
2023-03-23T20:48:16.789Z,97910.28
2023-03-23T20:53:39.543Z,97896.66
2023-03-23T20:59:02.409Z,97904.72
2023-03-23T21:04:27.334Z,97897.75
2023-03-23T21:09:49.734Z,97898.03
2023-03-23T21:15:12.467Z,97894.00
2023-03-23T21:20:34.996Z,97889.44
2023-03-23T21:26:02.343Z,97887.75
2023-03-23T21:31:25.408Z,97881.94
2023-03-23T21:36:47.149Z,97868.66
2023-03-23T21:42:09.020Z,97859.63
2023-03-23T21:47:31.009Z,97853.66
2023-03-23T21:52:53.910Z,97847.31
2023-03-23T21:58:16.076Z,97840.75
2023-03-23T22:03:38.882Z,97829.97
2023-03-23T22:09:02.192Z,97821.09
2023-03-23T22:14:24.149Z,97809.16
2023-03-23T22:19:45.998Z,97800.72
2023-03-23T22:25:08.567Z,97795.16
2023-03-23T22:30:32.887Z,97781.00
2023-03-23T22:35:54.601Z,97768.13
2023-03-23T22:41:23.087Z,97740.72
2023-03-23T22:46:45.790Z,97741.69
2023-03-23T22:52:07.485Z,97740.41
2023-03-23T22:57:30.554Z,97741.53
2023-03-23T23:02:52.299Z,97725.03
2023-03-23T23:08:16.621Z,97739.19
2023-03-23T23:13:40.956Z,97743.03
2023-03-23T23:19:03.128Z,97742.31
2023-03-23T23:24:26.456Z,97741.06
2023-03-23T23:29:48.229Z,97745.75
2023-03-23T23:35:13.406Z,97750.72
2023-03-23T23:40:35.352Z,97758.22
2023-03-23T23:45:57.219Z,97789.78
2023-03-23T23:51:19.385Z,97775.88
2023-03-23T23:56:41.291Z,97745.84
